Flight Track Log - Related Links

Times and Time Zones

All times are in EDT time to prevent confusion due to time zone crossing. See the XOJ552 flight status page for this flight to view local times or setup timezone preferences in your user account.

Time Position Orientation Groundspeed Altitude Reporting Facility
EDT Latitude Longitude Course Direction KTS MPH feet Rate Location/Type
Tue 06:07:06 PM 19.8000 -156.0667 347° North 250 288 2,900  Level Honolulu Center
Tue 06:08:06 PM 19.8667 -156.0833 347° North 270 311 6,800 3,800 Climbing Honolulu Center
Tue 06:09:06 PM 19.9500 -156.1167 339° North 280 322 10,500 3,250 Climbing Honolulu Center
Tue 06:10:06 PM 20.0167 -156.1333 347° North 310 357 13,300 2,600 Climbing Honolulu Center
Tue 06:11:06 PM 20.1167 -156.1667 343° North 330 380 15,700 1,950 Climbing Honolulu Center
Tue 06:12:06 PM 20.2000 -156.1833 349° North 360 414 17,200 1,636 Climbing Honolulu Center
Tue 06:13:07 PM 20.3167 -156.2167 345° North 390 449 19,000 1,300 Climbing Honolulu Center
Tue 06:14:06 PM 20.4333 -156.2500 345° North 410 472 19,800 1,500 Climbing Honolulu Center
Tue 06:15:07 PM 20.5333 -156.2667 351° North 400 460 22,000 1,983 Climbing Honolulu Center
Tue 06:16:07 PM 20.6500 -156.3000 345° North 420 483 23,800 2,050 Climbing Honolulu Center
Tue 06:17:07 PM 20.7667 -156.3333 345° North 410 472 26,100 2,150 Climbing Honolulu Center
Tue 06:18:07 PM 20.8667 -156.3500 351° North 410 472 28,100 1,750 Climbing Honolulu Center
Tue 06:19:07 PM 20.9833 -156.3833 345° North 430 495 29,600 1,550 Climbing Honolulu Center
Tue 06:20:07 PM 21.1000 -156.4167 345° North 420 483 31,200 1,488 Climbing Honolulu Center
Tue 06:21:08 PM 21.2167 -156.4500 345° North 430 495 32,600 1,438 Climbing Honolulu Center
Tue 06:22:08 PM 21.3333 -156.4833 345° North 430 495 34,100 1,500 Climbing Honolulu Center
Tue 06:23:08 PM 21.4500 -156.5167 345° North 430 495 35,600 1,500 Climbing Honolulu Center
Tue 06:24:08 PM 21.5667 -156.5333 352° North 420 483 37,100 1,550 Climbing Honolulu Center
Tue 06:25:08 PM 21.6833 -156.5167 North 420 483 38,700 1,500 Climbing Honolulu Center
Tue 06:26:08 PM 21.8000 -156.5167 360° North 410 472 40,100 950 Climbing Honolulu Center
Tue 06:27:08 PM 21.9000 -156.5167 360° North 400 460 40,600 450 Climbing Honolulu Center
Tue 06:28:08 PM 22.0167 -156.5167 360° North 410 472 41,000 200 Climbing Honolulu Center
Tue 06:29:08 PM 22.1333 -156.5167 360° North 420 483 41,000  Level Honolulu Center
Tue 06:30:08 PM 22.2500 -156.5000 North 430 495 41,000  Level Honolulu Center
Tue 06:31:09 PM 22.3833 -156.5000 360° North 430 495 41,000  Level Honolulu Center
Tue 06:32:09 PM 22.5000 -156.5000 360° North 430 495 41,000  Level Honolulu Center
Tue 06:33:09 PM 22.6167 -156.5000 360° North 430 495 41,000  Level Honolulu Center
Tue 06:34:09 PM 22.7333 -156.4833 North 430 495 41,000  Level Honolulu Center
Tue 06:35:09 PM 22.8500 -156.4833 360° North 430 495 41,000  Level Honolulu Center
Tue 06:36:09 PM 22.9833 -156.4833 360° North 430 495 41,000  Level Honolulu Center
Tue 06:37:10 PM 23.1000 -156.4833 360° North 430 495 41,000  Level Honolulu Center
Tue 06:38:10 PM 23.2167 -156.4833 360° North 430 495 41,000  Level Honolulu Center
Tue 06:39:10 PM 23.3333 -156.4667 North 430 495 41,000  Level Honolulu Center
Tue 06:40:10 PM 23.4500 -156.4667 360° North 420 483 41,000  Level Honolulu Center
Tue 06:41:10 PM 23.5833 -156.4667 360° North 430 495 41,000  Level Honolulu Center
Tue 06:42:10 PM 23.7000 -156.4667 360° North 440 506 41,000  Level Honolulu Center
Tue 06:43:10 PM 23.8167 -156.4500 North 430 495 41,000  Level Honolulu Center
Tue 06:44:10 PM 23.9333 -156.4500 360° North 430 495 41,000  Level Honolulu Center
Tue 06:45:10 PM 24.0667 -156.4500 360° North 430 495 41,000  Level Honolulu Center
Tue 06:47:00 PM 24.2939 -156.4466 North  Level FlightAware Approximate
Tue 06:54:00 PM 25.1618 -156.4334 North  Level FlightAware Approximate
Tue 06:55:00 PM 25.2560 -156.3463 41° Northeast  Level FlightAware Approximate
Tue 06:56:00 PM 25.3492 -156.2559 41° Northeast  Level FlightAware Approximate
Tue 06:56:14 PM 25.2000 -156.4167 42° Northeast 475 547 41,000  Level Oakland Oceanic (ODAPS)
Tue 06:57:00 PM 25.4424 -156.1654 41° Northeast  Level FlightAware Approximate
Tue 06:58:00 PM 25.5355 -156.0747 41° Northeast  Level FlightAware Approximate
Tue 06:59:00 PM 25.6286 -155.9839 41° Northeast  Level FlightAware Approximate
Tue 07:00:00 PM 25.7216 -155.8929 41° Northeast  Level FlightAware Approximate
Tue 07:01:00 PM 25.8145 -155.8018 41° Northeast  Level FlightAware Approximate
Tue 07:02:00 PM 25.9845 -155.6321 42° Northeast 475 547 41,000  Level FlightAware Transoceanic
Tue 07:03:00 PM 26.0822 -155.5333 42° Northeast 475 547 41,000  Level FlightAware Transoceanic
Tue 07:04:00 PM 26.1799 -155.4343 42° Northeast 475 547 41,000  Level FlightAware Transoceanic
Tue 07:05:00 PM 26.2776 -155.3352 42° Northeast 475 547 41,000  Level FlightAware Transoceanic
Tue 07:06:00 PM 26.3751 -155.2359 42° Northeast 475 547 41,000  Level FlightAware Transoceanic
Tue 07:07:00 PM 26.4726 -155.1364 42° Northeast 475 547 41,000  Level FlightAware Transoceanic
Tue 07:08:00 PM 26.5700 -155.0368 42° Northeast 475 547 41,000  Level FlightAware Transoceanic
Tue 07:09:00 PM 26.6674 -154.9370 43° Northeast 475 547 41,000  Level FlightAware Transoceanic
Tue 07:10:00 PM 26.7647 -154.8370 43° Northeast 475 547 41,000  Level FlightAware Transoceanic
Tue 07:11:00 PM 26.8619 -154.7369 43° Northeast 475 547 41,000  Level FlightAware Transoceanic
Tue 07:12:00 PM 26.9590 -154.6365 43° Northeast 475 547 41,000  Level FlightAware Transoceanic
Tue 07:13:00 PM 27.0561 -154.5361 43° Northeast 475 547 41,000  Level FlightAware Transoceanic
Tue 07:14:00 PM 27.1531 -154.4354 43° Northeast 475 547 41,000  Level FlightAware Transoceanic
Tue 07:15:00 PM 27.2500 -154.3345 43° Northeast 475 547 41,000  Level FlightAware Transoceanic
Tue 07:16:00 PM 27.3469 -154.2335 43° Northeast 475 547 41,000  Level FlightAware Transoceanic
Tue 07:17:00 PM 27.4437 -154.1323 43° Northeast 475 547 41,000  Level FlightAware Transoceanic
Tue 07:18:00 PM 27.5404 -154.0310 43° Northeast 475 547 41,000  Level FlightAware Transoceanic
Tue 07:19:00 PM 27.6370 -153.9294 43° Northeast 475 547 41,000  Level FlightAware Transoceanic
Tue 07:20:00 PM 27.7336 -153.8277 43° Northeast 475 547 41,000  Level FlightAware Transoceanic
Tue 07:21:00 PM 27.8300 -153.7258 43° Northeast 475 547 41,000  Level FlightAware Transoceanic
Tue 07:22:00 PM 27.9265 -153.6237 43° Northeast 475 547 41,000  Level FlightAware Transoceanic
Tue 07:23:00 PM 28.0228 -153.5214 43° Northeast 475 547 41,000  Level FlightAware Transoceanic
Tue 07:24:00 PM 28.1191 -153.4189 43° Northeast 475 547 41,000  Level FlightAware Transoceanic
Tue 07:25:00 PM 28.2152 -153.3163 43° Northeast 475 547 41,000  Level FlightAware Transoceanic
Tue 07:26:00 PM 28.3113 -153.2135 43° Northeast 475 547 41,000  Level FlightAware Transoceanic
Tue 07:27:00 PM 28.4074 -153.1105 43° Northeast 475 547 41,000  Level FlightAware Transoceanic
Tue 07:28:00 PM 28.5033 -153.0073 43° Northeast 475 547 41,000  Level FlightAware Transoceanic
Tue 07:29:00 PM 28.5992 -152.9039 43° Northeast 475 547 41,000  Level FlightAware Transoceanic
Tue 07:30:00 PM 28.6950 -152.8003 44° Northeast 475 547 41,000  Level FlightAware Transoceanic
Tue 07:31:00 PM 28.7907 -152.6965 44° Northeast 475 547 41,000  Level FlightAware Transoceanic
Tue 07:32:00 PM 28.8864 -152.5926 44° Northeast 475 547 41,000  Level FlightAware Transoceanic
Tue 07:33:00 PM 28.9819 -152.4884 44° Northeast 475 547 41,000  Level FlightAware Transoceanic
Tue 07:34:00 PM 29.0774 -152.3841 44° Northeast 475 547 41,000  Level FlightAware Transoceanic
Tue 07:35:00 PM 29.1728 -152.2796 44° Northeast 475 547 41,000  Level FlightAware Transoceanic
Tue 07:36:00 PM 29.2681 -152.1748 44° Northeast 475 547 41,000  Level FlightAware Transoceanic
Tue 07:37:00 PM 29.3633 -152.0699 44° Northeast 475 547 41,000  Level FlightAware Transoceanic
Tue 07:38:00 PM 29.4585 -151.9648 44° Northeast 475 547 41,000  Level FlightAware Transoceanic
Tue 07:39:00 PM 29.5536 -151.8595 44° Northeast 475 547 41,000  Level FlightAware Transoceanic
Tue 07:40:00 PM 29.6485 -151.7540 44° Northeast 475 547 41,000  Level FlightAware Transoceanic
Tue 07:41:00 PM 29.7434 -151.6483 44° Northeast 475 547 41,000  Level FlightAware Transoceanic
Tue 07:42:00 PM 29.8382 -151.5423 44° Northeast 475 547 41,000  Level FlightAware Transoceanic
Tue 07:43:00 PM 29.9330 -151.4362 44° Northeast 475 547 41,000  Level FlightAware Transoceanic
Tue 07:44:00 PM 30.0276 -151.3299 44° Northeast 475 547 41,000  Level FlightAware Transoceanic
Tue 07:45:00 PM 30.1222 -151.2234 44° Northeast 475 547 41,000  Level FlightAware Transoceanic
Tue 07:46:00 PM 30.2167 -151.1167 44° Northeast 475 547 41,000  Level FlightAware Transoceanic
Tue 07:47:00 PM 30.3111 -151.0096 44° Northeast 475 547 41,000  Level FlightAware Transoceanic
Tue 07:48:00 PM 30.4055 -150.9022 44° Northeast 475 547 41,000  Level FlightAware Transoceanic
Tue 07:49:00 PM 30.4997 -150.7947 45° Northeast 475 547 41,000  Level FlightAware Transoceanic
Tue 07:49:30 PM 30.2167 -151.1167 44° Northeast 485 558 41,000  Level Oakland Oceanic (ODAPS)
Tue 07:50:00 PM 30.5939 -150.6869 45° Northeast 475 547 41,000  Level FlightAware Transoceanic
Tue 07:51:00 PM 30.6880 -150.5790 45° Northeast 475 547 41,000  Level FlightAware Transoceanic
Tue 07:52:00 PM 30.7820 -150.4708 45° Northeast 475 547 41,000  Level FlightAware Transoceanic
Tue 07:53:00 PM 30.8759 -150.3625 45° Northeast 475 547 41,000  Level FlightAware Transoceanic
Tue 07:54:00 PM 30.9697 -150.2539 45° Northeast 475 547 41,000  Level FlightAware Transoceanic
Tue 07:55:00 PM 31.0800 -150.1258 45° Northeast 485 558 41,000  Level FlightAware Transoceanic
Tue 07:56:00 PM 31.1754 -150.0146 45° Northeast 485 558 41,000  Level FlightAware Transoceanic
Tue 07:57:00 PM 31.2708 -149.9032 45° Northeast 485 558 41,000  Level FlightAware Transoceanic
Tue 07:58:00 PM 31.3661 -149.7916 45° Northeast 485 558 41,000  Level FlightAware Transoceanic
Tue 07:59:00 PM 31.4612 -149.6797 45° Northeast 485 558 41,000  Level FlightAware Transoceanic
Tue 08:00:00 PM 31.5563 -149.5676 45° Northeast 485 558 41,000  Level FlightAware Transoceanic
Tue 08:01:00 PM 31.6513 -149.4553 45° Northeast 485 558 41,000  Level FlightAware Transoceanic
Tue 08:02:00 PM 31.7461 -149.3427 45° Northeast 485 558 41,000  Level FlightAware Transoceanic
Tue 08:03:00 PM 31.8409 -149.2299 45° Northeast 485 558 41,000  Level FlightAware Transoceanic
Tue 08:04:00 PM 31.9356 -149.1169 45° Northeast 485 558 41,000  Level FlightAware Transoceanic
Tue 08:05:00 PM 32.0302 -149.0037 45° Northeast 485 558 41,000  Level FlightAware Transoceanic
Tue 08:06:00 PM 32.1246 -148.8902 46° Northeast 485 558 41,000  Level FlightAware Transoceanic
Tue 08:07:00 PM 32.2190 -148.7765 46° Northeast 485 558 41,000  Level FlightAware Transoceanic
Tue 08:08:00 PM 32.3133 -148.6625 46° Northeast 485 558 41,000  Level FlightAware Transoceanic
Tue 08:09:00 PM 32.4075 -148.5483 46° Northeast 485 558 41,000  Level FlightAware Transoceanic
Tue 08:10:00 PM 32.5015 -148.4339 46° Northeast 485 558 41,000  Level FlightAware Transoceanic
Tue 08:11:00 PM 32.5955 -148.3192 46° Northeast 485 558 41,000  Level FlightAware Transoceanic
Tue 08:12:00 PM 32.6893 -148.2043 46° Northeast 485 558 41,000  Level FlightAware Transoceanic
Tue 08:13:00 PM 32.7831 -148.0891 46° Northeast 485 558 41,000  Level FlightAware Transoceanic
Tue 08:14:00 PM 32.8767 -147.9737 46° Northeast 485 558 41,000  Level FlightAware Transoceanic
Tue 08:15:00 PM 32.9703 -147.8581 46° Northeast 485 558 41,000  Level FlightAware Transoceanic
Tue 08:16:00 PM 33.0637 -147.7422 46° Northeast 485 558 41,000  Level FlightAware Transoceanic
Tue 08:17:00 PM 33.1570 -147.6261 46° Northeast 485 558 41,000  Level FlightAware Transoceanic
Tue 08:18:00 PM 33.2502 -147.5097 46° Northeast 485 558 41,000  Level FlightAware Transoceanic
Tue 08:19:00 PM 33.3433 -147.3931 46° Northeast 485 558 41,000  Level FlightAware Transoceanic
Tue 08:20:00 PM 33.4364 -147.2762 46° Northeast 485 558 41,000  Level FlightAware Transoceanic
Tue 08:21:00 PM 33.5292 -147.1591 46° Northeast 485 558 41,000  Level FlightAware Transoceanic
Tue 08:22:00 PM 33.6220 -147.0417 47° Northeast 485 558 41,000  Level FlightAware Transoceanic
Tue 08:23:00 PM 33.7147 -146.9241 47° Northeast 485 558 41,000  Level FlightAware Transoceanic
Tue 08:24:00 PM 33.8072 -146.8062 47° Northeast 485 558 41,000  Level FlightAware Transoceanic
Tue 08:25:00 PM 33.8997 -146.6880 47° Northeast 485 558 41,000  Level FlightAware Transoceanic
Tue 08:26:00 PM 33.9920 -146.5696 47° Northeast 485 558 41,000  Level FlightAware Transoceanic
Tue 08:27:00 PM 34.0842 -146.4510 47° Northeast 485 558 41,000  Level FlightAware Transoceanic
Tue 08:28:00 PM 34.1763 -146.3320 47° Northeast 485 558 41,000  Level FlightAware Transoceanic
Tue 08:29:00 PM 34.2683 -146.2129 47° Northeast 485 558 41,000  Level FlightAware Transoceanic
Tue 08:30:00 PM 34.3602 -146.0934 47° Northeast 485 558 41,000  Level FlightAware Transoceanic
Tue 08:31:00 PM 34.4520 -145.9738 47° Northeast 485 558 41,000  Level FlightAware Transoceanic
Tue 08:32:00 PM 34.5436 -145.8538 47° Northeast 485 558 41,000  Level FlightAware Transoceanic
Tue 08:33:00 PM 34.6351 -145.7336 47° Northeast 485 558 41,000  Level FlightAware Transoceanic
Tue 08:34:00 PM 34.7265 -145.6131 47° Northeast 485 558 41,000  Level FlightAware Transoceanic
Tue 08:35:00 PM 34.8178 -145.4923 47° Northeast 485 558 41,000  Level FlightAware Transoceanic
Tue 08:36:00 PM 34.9090 -145.3713 47° Northeast 485 558 41,000  Level FlightAware Transoceanic
Tue 08:37:00 PM 35.0000 -145.2500 48° Northeast 485 558 41,000  Level FlightAware Transoceanic
Tue 08:38:00 PM 35.0893 -145.1304 48° Northeast 485 558 41,000  Level FlightAware Transoceanic
Tue 08:39:00 PM 35.1785 -145.0105 48° Northeast 485 558 41,000  Level FlightAware Transoceanic
Tue 08:39:59 PM 35.0000 -145.2500 48° Northeast 494 568 41,000  Level Oakland Oceanic (ODAPS)
Tue 08:40:00 PM 35.2675 -144.8903 48° Northeast 485 558 41,000  Level FlightAware Transoceanic
Tue 08:41:00 PM 35.3565 -144.7699 48° Northeast 485 558 41,000  Level FlightAware Transoceanic
Tue 08:41:01 PM 35.0000 -145.2500 48° Northeast 494 568 41,000  Level Oakland Oceanic (ODAPS)
Tue 08:42:00 PM 35.4453 -144.6492 48° Northeast 485 558 41,000  Level FlightAware Transoceanic
Tue 08:43:00 PM 35.5340 -144.5283 48° Northeast 485 558 41,000  Level FlightAware Transoceanic
Tue 08:44:00 PM 35.6226 -144.4071 48° Northeast 485 558 41,000  Level FlightAware Transoceanic
Tue 08:45:00 PM 35.7110 -144.2856 48° Northeast 485 558 41,000  Level FlightAware Transoceanic
Tue 08:46:00 PM 35.7372 -144.2495 48° Northeast 494 568 41,000  Level FlightAware Transoceanic
Tue 08:47:00 PM 35.8288 -144.1232 48° Northeast 494 568 41,000  Level FlightAware Transoceanic
Tue 08:48:00 PM 35.9202 -143.9965 48° Northeast 494 568 41,000  Level FlightAware Transoceanic
Tue 08:49:00 PM 36.0115 -143.8696 48° Northeast 494 568 41,000  Level FlightAware Transoceanic
Tue 08:50:00 PM 36.1027 -143.7424 48° Northeast 494 568 41,000  Level FlightAware Transoceanic
Tue 08:51:00 PM 36.1937 -143.6149 49° Northeast 494 568 41,000  Level FlightAware Transoceanic
Tue 08:52:00 PM 36.2846 -143.4870 49° Northeast 494 568 41,000  Level FlightAware Transoceanic
Tue 08:53:00 PM 36.3754 -143.3589 49° Northeast 494 568 41,000  Level FlightAware Transoceanic
Tue 08:54:00 PM 36.4660 -143.2305 49° Northeast 494 568 41,000  Level FlightAware Transoceanic
Tue 08:55:00 PM 36.5565 -143.1018 49° Northeast 494 568 41,000  Level FlightAware Transoceanic
Tue 08:56:00 PM 36.6468 -142.9727 49° Northeast 494 568 41,000  Level FlightAware Transoceanic
Tue 08:57:00 PM 36.7370 -142.8434 49° Northeast 494 568 41,000  Level FlightAware Transoceanic
Tue 08:58:00 PM 36.8271 -142.7138 49° Northeast 494 568 41,000  Level FlightAware Transoceanic
Tue 08:59:00 PM 36.9170 -142.5839 49° Northeast 494 568 41,000  Level FlightAware Transoceanic
Tue 09:00:00 PM 37.0068 -142.4536 49° Northeast 494 568 41,000  Level FlightAware Transoceanic
Tue 09:01:00 PM 37.0964 -142.3231 49° Northeast 494 568 41,000  Level FlightAware Transoceanic
Tue 09:02:00 PM 37.1859 -142.1922 49° Northeast 494 568 41,000  Level FlightAware Transoceanic
Tue 09:03:00 PM 37.2753 -142.0610 49° Northeast 494 568 41,000  Level FlightAware Transoceanic
Tue 09:04:00 PM 37.3645 -141.9296 50° Northeast 494 568 41,000  Level FlightAware Transoceanic
Tue 09:05:00 PM 37.4536 -141.7978 50° Northeast 494 568 41,000  Level FlightAware Transoceanic
Tue 09:06:00 PM 37.5425 -141.6657 50° Northeast 494 568 41,000  Level FlightAware Transoceanic
Tue 09:07:00 PM 37.6312 -141.5332 50° Northeast 494 568 41,000  Level FlightAware Transoceanic
Tue 09:08:00 PM 37.7199 -141.4005 50° Northeast 494 568 41,000  Level FlightAware Transoceanic
Tue 09:09:00 PM 37.8083 -141.2675 50° Northeast 494 568 41,000  Level FlightAware Transoceanic
Tue 09:10:00 PM 37.8966 -141.1341 50° Northeast 494 568 41,000  Level FlightAware Transoceanic
Tue 09:11:00 PM 37.9848 -141.0004 50° Northeast 494 568 41,000  Level FlightAware Transoceanic
Tue 09:12:00 PM 38.0728 -140.8664 50° Northeast 494 568 41,000  Level FlightAware Transoceanic
Tue 09:13:00 PM 38.1607 -140.7320 50° Northeast 494 568 41,000  Level FlightAware Transoceanic
Tue 09:14:00 PM 38.2484 -140.5974 50° Northeast 494 568 41,000  Level FlightAware Transoceanic
Tue 09:15:00 PM 38.3360 -140.4624 50° Northeast 494 568 41,000  Level FlightAware Transoceanic
Tue 09:16:00 PM 38.4234 -140.3271 51° Northeast 494 568 41,000  Level FlightAware Transoceanic
Tue 09:17:00 PM 38.5106 -140.1914 51° Northeast 494 568 41,000  Level FlightAware Transoceanic
Tue 09:18:00 PM 38.5977 -140.0555 51° Northeast 494 568 41,000  Level FlightAware Transoceanic
Tue 09:19:00 PM 38.6846 -139.9192 51° Northeast 494 568 41,000  Level FlightAware Transoceanic
Tue 09:20:00 PM 38.7714 -139.7825 51° Northeast 494 568 41,000  Level FlightAware Transoceanic
Tue 09:21:00 PM 38.8580 -139.6456 51° Northeast 494 568 41,000  Level FlightAware Transoceanic
Tue 09:22:00 PM 38.9445 -139.5083 51° Northeast 494 568 41,000  Level FlightAware Transoceanic
Tue 09:23:00 PM 39.0308 -139.3706 51° Northeast 494 568 41,000  Level FlightAware Transoceanic
Tue 09:24:00 PM 39.1169 -139.2327 51° Northeast 494 568 41,000  Level FlightAware Transoceanic
Tue 09:25:00 PM 39.2029 -139.0944 51° Northeast 494 568 41,000  Level FlightAware Transoceanic
Tue 09:26:00 PM 39.2887 -138.9557 51° Northeast 494 568 41,000  Level FlightAware Transoceanic
Tue 09:27:00 PM 39.3743 -138.8167 52° Northeast 494 568 41,000  Level FlightAware Transoceanic
Tue 09:28:00 PM 39.4598 -138.6774 52° Northeast 494 568 41,000  Level FlightAware Transoceanic
Tue 09:29:00 PM 39.5451 -138.5377 52° Northeast 494 568 41,000  Level FlightAware Transoceanic
Tue 09:30:00 PM 39.6302 -138.3977 52° Northeast 494 568 41,000  Level FlightAware Transoceanic
Tue 09:31:00 PM 39.7152 -138.2574 52° Northeast 494 568 41,000  Level FlightAware Transoceanic
Tue 09:32:00 PM 39.8000 -138.1167 52° Northeast 494 568 41,000  Level FlightAware Transoceanic
Tue 09:33:00 PM 39.8762 -137.9899 52° Northeast 494 568 41,000  Level FlightAware Transoceanic
Tue 09:34:00 PM 39.9522 -137.8628 52° Northeast 494 568 41,000  Level FlightAware Transoceanic
Tue 09:35:00 PM 40.0281 -137.7355 52° Northeast 494 568 41,000  Level FlightAware Transoceanic
Tue 09:36:00 PM 40.1038 -137.6079 52° Northeast 494 568 41,000  Level FlightAware Transoceanic
Tue 09:37:00 PM 40.1794 -137.4800 52° Northeast 494 568 41,000  Level FlightAware Transoceanic
Tue 09:38:00 PM 40.2549 -137.3518 52° Northeast 494 568 41,000  Level FlightAware Transoceanic
Tue 09:39:00 PM 40.3302 -137.2233 52° Northeast 494 568 41,000  Level FlightAware Transoceanic
Tue 09:39:39 PM 39.8000 -138.1167 52° Northeast 461 531 41,000  Level Oakland Oceanic (ODAPS)
Tue 09:40:00 PM 40.4054 -137.0945 53° Northeast 494 568 41,000  Level FlightAware Transoceanic
Tue 09:41:00 PM 40.4804 -136.9655 53° Northeast 494 568 41,000  Level FlightAware Transoceanic
Tue 09:42:00 PM 40.5553 -136.8361 53° Northeast 494 568 41,000  Level FlightAware Transoceanic
Tue 09:43:00 PM 40.6300 -136.7065 53° Northeast 494 568 41,000  Level FlightAware Transoceanic
Tue 09:44:00 PM 40.7046 -136.5766 53° Northeast 494 568 41,000  Level FlightAware Transoceanic
Tue 09:45:00 PM 40.6583 -136.6573 53° Northeast 461 531 41,000  Level FlightAware Transoceanic
Tue 09:46:00 PM 40.7355 -136.5228 53° Northeast 461 531 41,000  Level FlightAware Transoceanic
Tue 09:47:00 PM 40.8124 -136.3879 53° Northeast 461 531 41,000  Level FlightAware Transoceanic
Tue 09:48:00 PM 40.8892 -136.2528 53° Northeast 461 531 41,000  Level FlightAware Transoceanic
Tue 09:49:00 PM 40.9658 -136.1173 53° Northeast 461 531 41,000  Level FlightAware Transoceanic
Tue 09:50:00 PM 41.0423 -135.9816 53° Northeast 461 531 41,000  Level FlightAware Transoceanic
Tue 09:51:00 PM 41.1186 -135.8455 53° Northeast 461 531 41,000  Level FlightAware Transoceanic
Tue 09:52:00 PM 41.1948 -135.7090 53° Northeast 461 531 41,000  Level FlightAware Transoceanic
Tue 09:53:00 PM 41.2708 -135.5723 54° Northeast 461 531 41,000  Level FlightAware Transoceanic
Tue 09:54:00 PM 41.3466 -135.4353 54° Northeast 461 531 41,000  Level FlightAware Transoceanic
Tue 09:55:00 PM 41.4223 -135.2979 54° Northeast 461 531 41,000  Level FlightAware Transoceanic
Tue 09:56:00 PM 41.4978 -135.1602 54° Northeast 461 531 41,000  Level FlightAware Transoceanic
Tue 09:57:00 PM 41.5732 -135.0222 54° Northeast 461 531 41,000  Level FlightAware Transoceanic
Tue 09:58:00 PM 41.6483 -134.8839 54° Northeast 461 531 41,000  Level FlightAware Transoceanic
Tue 09:59:00 PM 41.7234 -134.7453 54° Northeast 461 531 41,000  Level FlightAware Transoceanic
Tue 10:00:00 PM 41.7982 -134.6063 54° Northeast 461 531 41,000  Level FlightAware Transoceanic
Tue 10:01:00 PM 41.8729 -134.4670 54° Northeast 461 531 41,000  Level FlightAware Transoceanic
Tue 10:02:00 PM 41.9474 -134.3274 54° Northeast 461 531 41,000  Level FlightAware Transoceanic
Tue 10:03:00 PM 42.0217 -134.1875 54° Northeast 461 531 41,000  Level FlightAware Transoceanic
Tue 10:04:00 PM 42.0959 -134.0472 55° Northeast 461 531 41,000  Level FlightAware Transoceanic
Tue 10:05:00 PM 42.1699 -133.9066 55° Northeast 461 531 41,000  Level FlightAware Transoceanic
Tue 10:06:00 PM 42.2437 -133.7657 55° Northeast 461 531 41,000  Level FlightAware Transoceanic
Tue 10:07:00 PM 42.3174 -133.6244 55° Northeast 461 531 41,000  Level FlightAware Transoceanic
Tue 10:08:00 PM 42.3909 -133.4828 55° Northeast 461 531 41,000  Level FlightAware Transoceanic
Tue 10:09:00 PM 42.4642 -133.3409 55° Northeast 461 531 41,000  Level FlightAware Transoceanic
Tue 10:10:00 PM 42.5373 -133.1986 55° Northeast 461 531 41,000  Level FlightAware Transoceanic
Tue 10:11:00 PM 42.6103 -133.0560 55° Northeast 461 531 41,000  Level FlightAware Transoceanic
Tue 10:12:00 PM 42.6830 -132.9131 55° Northeast 461 531 41,000  Level FlightAware Transoceanic
Tue 10:13:00 PM 42.7556 -132.7699 55° Northeast 461 531 41,000  Level FlightAware Transoceanic
Tue 10:14:00 PM 42.8281 -132.6263 56° Northeast 461 531 41,000  Level FlightAware Transoceanic
Tue 10:15:00 PM 42.9003 -132.4823 56° Northeast 461 531 41,000  Level FlightAware Transoceanic
Tue 10:16:00 PM 42.9724 -132.3381 56° Northeast 461 531 41,000  Level FlightAware Transoceanic
Tue 10:17:00 PM 43.0442 -132.1935 56° Northeast 461 531 41,000  Level FlightAware Transoceanic
Tue 10:18:00 PM 43.1159 -132.0485 56° Northeast 461 531 41,000  Level FlightAware Transoceanic
Tue 10:19:00 PM 43.1874 -131.9032 56° Northeast 461 531 41,000  Level FlightAware Transoceanic
Tue 10:20:00 PM 43.2588 -131.7576 56° Northeast 461 531 41,000  Level FlightAware Transoceanic
Tue 10:21:00 PM 43.3299 -131.6117 56° Northeast 461 531 41,000  Level FlightAware Transoceanic
Tue 10:22:00 PM 43.4009 -131.4653 56° Northeast 461 531 41,000  Level FlightAware Transoceanic
Tue 10:23:00 PM 43.4716 -131.3187 56° Northeast 461 531 41,000  Level FlightAware Transoceanic
Tue 10:24:00 PM 43.5422 -131.1717 57° Northeast 461 531 41,000  Level FlightAware Transoceanic
Tue 10:25:00 PM 43.6126 -131.0244 57° Northeast 461 531 41,000  Level FlightAware Transoceanic
Tue 10:26:00 PM 43.6828 -130.8767 57° Northeast 461 531 41,000  Level FlightAware Transoceanic
Tue 10:27:00 PM 43.7528 -130.7287 57° Northeast 461 531 41,000  Level FlightAware Transoceanic
Tue 10:28:00 PM 43.8227 -130.5803 57° Northeast 461 531 41,000  Level FlightAware Transoceanic
Tue 10:29:00 PM 43.8923 -130.4316 57° Northeast 461 531 41,000  Level FlightAware Transoceanic
Tue 10:30:00 PM 43.9617 -130.2825 57° Northeast 461 531 41,000  Level FlightAware Transoceanic
Tue 10:31:00 PM 44.0309 -130.1331 57° Northeast 461 531 41,000  Level FlightAware Transoceanic
Tue 10:32:00 PM 44.1000 -129.9833 58° Northeast 461 531 41,000  Level FlightAware Transoceanic
Tue 10:33:00 PM 44.1628 -129.8446 58° Northeast 461 531 41,000  Level FlightAware Transoceanic
Tue 10:34:00 PM 44.2254 -129.7055 58° Northeast 461 531 41,000  Level FlightAware Transoceanic
Tue 10:35:00 PM 44.2878 -129.5662 58° Northeast 461 531 41,000  Level FlightAware Transoceanic
Tue 10:36:00 PM 44.3501 -129.4266 58° Northeast 461 531 41,000  Level FlightAware Transoceanic
Tue 10:37:00 PM 44.4122 -129.2866 58° Northeast 461 531 41,000  Level FlightAware Transoceanic
Tue 10:38:00 PM 44.4741 -129.1464 58° Northeast 461 531 41,000  Level FlightAware Transoceanic
Tue 10:38:54 PM 44.1000 -129.9833 58° Northeast 391 450 41,000  Level Oakland Oceanic (ODAPS)
Tue 10:39:00 PM 44.5359 -129.0059 58° Northeast 461 531 41,000  Level FlightAware Transoceanic
Tue 10:40:00 PM 44.5975 -128.8651 59° Northeast 461 531 41,000  Level FlightAware Transoceanic
Tue 10:41:00 PM 44.6589 -128.7239 59° Northeast 461 531 41,000  Level FlightAware Transoceanic
Tue 10:42:00 PM 44.7201 -128.5825 59° Northeast 461 531 41,000  Level FlightAware Transoceanic
Tue 10:43:00 PM 44.7812 -128.4408 59° Northeast 461 531 41,000  Level FlightAware Transoceanic
Tue 10:44:00 PM 44.8421 -128.2988 59° Northeast 461 531 41,000  Level FlightAware Transoceanic
Tue 10:45:00 PM 44.7275 -128.5655 59° Northeast 391 450 41,000  Level FlightAware Transoceanic
Tue 10:46:00 PM 44.7836 -128.4351 59° Northeast 391 450 41,000  Level FlightAware Transoceanic
Tue 10:47:00 PM 44.8396 -128.3045 59° Northeast 391 450 41,000  Level FlightAware Transoceanic
Tue 10:48:00 PM 44.8955 -128.1736 59° Northeast 391 450 41,000  Level FlightAware Transoceanic
Tue 10:49:00 PM 44.9512 -128.0424 59° Northeast 391 450 41,000  Level FlightAware Transoceanic
Tue 10:50:00 PM 45.0068 -127.9110 59° Northeast 391 450 41,000  Level FlightAware Transoceanic
Tue 10:51:00 PM 45.0622 -127.7793 59° Northeast 391 450 41,000  Level FlightAware Transoceanic
Tue 10:52:00 PM 45.1175 -127.6473 59° Northeast 391 450 41,000  Level FlightAware Transoceanic
Tue 10:52:36 PM 45.0919 -127.7161 60° Northeast 428 493 41,000  Level Seattle Center
Tue 10:53:00 PM 45.1726 -127.5152 59° Northeast 391 450 41,000  Level FlightAware Transoceanic
Tue 10:53:37 PM 45.1569 -127.5719 57° Northeast 430 495 41,000  Level Seattle Center
Tue 10:54:00 PM 45.2275 -127.3827 60° Northeast 391 450 41,000  Level FlightAware Transoceanic
Tue 10:54:38 PM 45.2133 -127.4286 61° Northeast 424 488 41,000  Level Seattle Center
Tue 10:55:00 PM 45.2823 -127.2500 60° Northeast 391 450 41,000  Level FlightAware Transoceanic
Tue 10:55:38 PM 45.2733 -127.2828 60° Northeast 427 491 41,000  Level Seattle Center
Tue 10:56:00 PM 45.3370 -127.1171 60° Northeast 391 450 41,000  Level FlightAware Transoceanic
Tue 10:56:39 PM 45.3356 -127.1361 59° Northeast 435 501 41,000  Level Seattle Center
Tue 10:57:00 PM 45.3915 -126.9839 60° Northeast 391 450 41,000  Level FlightAware Transoceanic
Tue 10:57:40 PM 45.3953 -126.9911 60° Northeast 428 493 41,000  Level Seattle Center
Tue 10:58:40 PM 45.4558 -126.8425 60° Northeast 433 498 41,000  Level Seattle Center
Tue 10:59:41 PM 45.5347 -126.6722 56° Northeast 435 501 41,000  Level Seattle Center
Tue 11:00:42 PM 45.6050 -126.5342 54° Northeast 433 498 41,000  Level Seattle Center
Tue 11:01:42 PM 45.6625 -126.3858 61° Northeast 431 496 41,000  Level Seattle Center
Tue 11:02:43 PM 45.7219 -126.2389 60° Northeast 429 494 41,000  Level Seattle Center
Tue 11:03:44 PM 45.7803 -126.0903 61° Northeast 428 493 41,000  Level Seattle Center
Tue 11:04:44 PM 45.8389 -125.9425 60° Northeast 428 493 41,000  Level Seattle Center
Tue 11:05:45 PM 45.8978 -125.7944 60° Northeast 428 493 41,000  Level Seattle Center
Tue 11:06:46 PM 45.9556 -125.6442 61° Northeast 430 495 41,000  Level Seattle Center
Tue 11:07:46 PM 46.0147 -125.4942 60° Northeast 431 496 41,000  Level Seattle Center
Tue 11:08:47 PM 46.0719 -125.3461 61° Northeast 427 491 41,000  Level Seattle Center
Tue 11:09:48 PM 46.1294 -125.1944 61° Northeast 429 494 41,000  Level Seattle Center
Tue 11:10:49 PM 46.1878 -125.0431 61° Northeast 432 497 41,000  Level Seattle Center
Tue 11:11:49 PM 46.2458 -124.8908 61° Northeast 432 497 41,000  Level Seattle Center
Tue 11:12:50 PM 46.3022 -124.7392 62° Northeast 431 496 41,000  Level Seattle Center
Tue 11:13:51 PM 46.3608 -124.5858 61° Northeast 433 498 41,000  Level Seattle Center
Tue 11:14:52 PM 46.4211 -124.4233 62° Northeast 436 502 41,000 -1,091 Level Seattle Center
Tue 11:15:52 PM 46.4783 -124.2692 62° Northeast 437 503 38,800 -2,281 Descending Seattle Center
Tue 11:16:53 PM 46.5317 -124.1253 62° Northeast 414 476 36,400 -2,311 Descending Seattle Center
Tue 11:17:54 PM 46.5864 -123.9750 62° Northeast 420 483 34,100 -2,331 Descending Seattle Center
Tue 11:18:54 PM 46.6481 -123.8081 62° Northeast 443 510 31,700 -2,331 Descending Seattle Center
Tue 11:19:55 PM 46.7056 -123.6486 62° Northeast 450 518 29,400 -2,311 Descending Seattle Center
Tue 11:20:56 PM 46.7619 -123.4931 62° Northeast 440 506 27,000 -2,311 Descending Seattle Center
Tue 11:21:57 PM 46.8178 -123.3367 62° Northeast 440 506 24,700 -2,506 Descending Seattle Center
Tue 11:22:15 PM 46.8447 -123.2653 61° Northeast 435 501 23,700 -2,600 Descending Seattle Center
Tue 11:22:57 PM 46.8822 -123.1550 64° Northeast 428 493 22,100 -2,231 Descending Seattle Center
Tue 11:23:33 PM 46.9131 -123.0678 63° Northeast 412 474 20,800 -2,164 Descending Seattle Center
Tue 11:23:58 PM 46.9339 -123.0114 62° Northeast 410 472 19,900 -1,964 Descending Seattle Center
Tue 11:24:28 PM 46.9575 -122.9436 63° Northeast 370 426 19,000 -1,967 Descending Seattle Center
Tue 11:24:59 PM 46.9903 -122.8783 54° Northeast 386 444 17,900 -2,066 Descending Seattle Center
Tue 11:25:29 PM 47.0292 -122.8311 40° Northeast 393 452 16,900 -2,100 Descending Seattle Center
Tue 11:25:59 PM 47.0742 -122.7733 41° Northeast 394 453 15,800 -2,000 Descending Seattle Center
Tue 11:26:35 PM 47.1164 -122.7192 41° Northeast 384 442 14,700 -1,967 Descending Seattle Center
Tue 11:27:00 PM 47.1528 -122.6725 41° Northeast 378 435 13,800 -2,066 Descending Seattle Center
Tue 11:27:36 PM 47.1992 -122.6158 40° Northeast 364 419 12,600 -1,770 Descending Seattle Center
Tue 11:28:01 PM 47.2283 -122.5761 43° Northeast 364 419 12,000 -1,500 Descending Seattle Center
Tue 11:28:36 PM 47.2689 -122.5225 42° Northeast 333 383 11,100 -1,475 Descending Seattle Center
Tue 11:29:02 PM 47.2942 -122.4894 42° Northeast 313 360 10,500 -1,475 Descending Seattle Center
Tue 11:29:37 PM 47.3372 -122.4592 25° Northeast 278 320 9,600 -1,500 Descending Seattle Center
Tue 11:30:02 PM 47.3689 -122.4617 357° North 294 338 9,000 -1,574 Descending Seattle Center
Tue 11:30:38 PM 47.4172 -122.4675 355° North 286 329 8,000 -1,672 Descending Seattle Center
Tue 11:31:03 PM 47.4481 -122.4708 356° North 285 328 7,300 -2,400 Descending Seattle Center
Tue 11:31:38 PM 47.4936 -122.4717 359° North 260 299 5,600 -3,148 Descending Seattle Center
Tue 11:32:04 PM 47.5200 -122.4731 358° North 256 295 4,100 -3,551 Descending Seattle Center
Tue 11:32:27 PM 47.5458 -122.4758 356° North 243 280 2,700 -1,869 Descending Seattle Center
Tue 11:33:05 PM 47.5814 -122.4558 21° North 234 269 2,200 -500 Descending Seattle Center
Tue 11:33:27 PM 47.5950 -122.4322 49° Northeast 205 236 2,200 -700 Level Seattle Center
Tue 11:34:05 PM 47.6019 -122.3839 78° East 178 205 1,500 -885 Descending Seattle Center
Tue 11:34:28 PM 47.5942 -122.3672 125° Southeast 146 168 1,300 -689 Descending Seattle Center
Tue 11:35:06 PM 47.5753 -122.3408 137° Southeast 140 161 800 -689 Descending Seattle Center
Tue 11:35:29 PM 47.5628 -122.3317 154° Southeast 131 151 600 -492 Descending Seattle Center
Tue 11:36:07 PM 47.5431 -122.3156 151° Southeast 128 147 300 -474 Descending Seattle Center
Tue 11:38:00 PM 47.5300 -122.3020 58° Northeast  Level Estimated

Login

Don't have an account? Register now (free) for customized features, flight alerts, and more!